Time;durP1;ratioP1;P1;durP2;ratioP2;P2;SDS_P1;SDS_P2;PMS_P1;PMS_P2;Temp;Humidity;BMP_temperature;BMP_pressure;BME280_temperature;BME280_humidity;BME280_pressure;Samples;Min_cycle;Max_cycle;Signal;HPM_P1;HPM_P2
2022/01/02 00:00:08;;;;;;;2.90;1.55;;;8.20;99.90;;;;;;5085141;28;20117;-59
2022/01/02 00:02:35;;;;;;;4.70;2.30;;;8.20;99.90;;;;;;5094589;28;20044;-57
2022/01/02 00:05:05;;;;;;;6.47;2.05;;;8.30;99.90;;;;;;5094688;28;20042;-59
2022/01/02 00:07:35;;;;;;;4.15;1.75;;;8.30;99.90;;;;;;5103849;28;20193;-60
2022/01/02 00:10:05;;;;;;;3.33;2.13;;;8.40;99.90;;;;;;5096955;28;20067;-56
2022/01/02 00:12:35;;;;;;;3.90;1.90;;;8.40;99.90;;;;;;5100452;28;20043;-60
2022/01/02 00:15:04;;;;;;;5.53;2.03;;;8.50;99.90;;;;;;5093387;28;20044;-60
2022/01/02 00:17:31;;;;;;;5.60;1.90;;;8.50;99.90;;;;;;5094088;28;20044;-58
2022/01/02 00:20:03;;;;;;;3.30;1.67;;;8.50;99.90;;;;;;5083914;28;20119;-57
2022/01/02 00:22:40;;;;;;;8.57;1.83;;;8.50;99.90;;;;;;5082074;28;20043;-58
2022/01/02 00:25:18;;;;;;;4.10;1.40;;;8.60;99.90;;;;;;5084066;28;20593;-56
2022/01/02 00:27:44;;;;;;;4.35;1.80;;;8.70;99.90;;;;;;5089327;28;20054;-59
2022/01/02 00:30:11;;;;;;;3.53;1.67;;;8.90;99.90;;;;;;5082021;28;20500;-59
2022/01/02 00:32:37;;;;;;;3.80;1.77;;;9.00;99.90;;;;;;5086964;28;20073;-60
2022/01/02 00:35:04;;;;;;;3.75;1.70;;;8.90;99.90;;;;;;5080148;28;20543;-59
2022/01/02 00:37:30;;;;;;;2.50;1.60;;;8.90;99.90;;;;;;5088314;28;20054;-59
2022/01/02 00:39:55;;;;;;;;;;;8.80;99.90;;;;;;5083708;28;20126;-59
2022/01/02 00:42:31;;;;;;;5.20;1.85;;;8.80;99.90;;;;;;5090117;28;19924;-58
2022/01/02 00:45:18;;;;;;;3.05;1.20;;;8.90;99.90;;;;;;5079972;28;20044;-60
2022/01/02 00:48:03;;;;;;;3.17;1.55;;;9.00;99.90;;;;;;5084513;28;20052;-61
2022/01/02 00:50:41;;;;;;;7.63;1.38;;;8.90;99.90;;;;;;5085165;28;20036;-60
2022/01/02 00:53:09;;;;;;;4.57;1.38;;;8.90;99.90;;;;;;5086665;28;20405;-59
2022/01/02 00:55:35;;;;;;;3.72;1.55;;;8.80;99.90;;;;;;5076212;28;20193;-59
2022/01/02 00:58:02;;;;;;;;;;;8.80;99.90;;;;;;5088172;28;20136;-61
2022/01/02 01:00:30;;;;;;;2.95;1.52;;;8.90;99.90;;;;;;5081632;28;19916;-60
2022/01/02 01:03:05;;;;;;;2.42;1.30;;;8.90;99.90;;;;;;5085870;28;20204;-55
2022/01/02 01:05:34;;;;;;;4.07;1.23;;;8.90;99.90;;;;;;5083595;28;20040;-59
2022/01/02 01:08:06;;;;;;;1.98;1.35;;;8.90;99.90;;;;;;5087044;28;20043;-59
2022/01/02 01:10:35;;;;;;;4.53;1.38;;;8.90;99.90;;;;;;5084267;28;20036;-60
2022/01/02 01:13:04;;;;;;;5.55;1.88;;;8.80;99.90;;;;;;5085626;28;20040;-59
2022/01/02 01:15:32;;;;;;;5.35;1.60;;;8.80;99.90;;;;;;5080004;28;20535;-59
2022/01/02 01:18:01;;;;;;;4.93;1.58;;;8.90;99.90;;;;;;5088139;28;20082;-60
2022/01/02 01:20:31;;;;;;;2.83;1.80;;;8.90;99.90;;;;;;5081696;28;20032;-60
2022/01/02 01:22:56;;;;;;;4.70;1.60;;;8.80;99.90;;;;;;5085911;28;20032;-58
2022/01/02 01:25:23;;;;;;;;;;;8.80;99.90;;;;;;5083865;28;20044;-59
2022/01/02 01:27:50;;;;;;;2.08;1.40;;;8.70;99.90;;;;;;5087240;28;20371;-59
2022/01/02 01:30:18;;;;;;;3.03;1.50;;;8.70;99.90;;;;;;5080800;28;20054;-58
2022/01/02 01:32:45;;;;;;;3.97;1.70;;;8.80;99.90;;;;;;5086958;28;20793;-59
2022/01/02 01:35:11;;;;;;;4.82;1.30;;;8.80;99.90;;;;;;5081420;28;20046;-59
2022/01/02 01:37:38;;;;;;;8.98;1.65;;;8.80;99.90;;;;;;5088164;28;20062;-58
2022/01/02 01:40:07;;;;;;;4.10;1.75;;;8.80;99.90;;;;;;5081742;28;20492;-59
2022/01/02 01:42:37;;;;;;;5.47;1.52;;;8.80;99.90;;;;;;5087714;28;20040;-60
2022/01/02 01:47:31;;;;;;;3.67;1.30;;;8.80;99.90;;;;;;5087965;28;20883;-59
2022/01/02 01:49:57;;;;;;;;;;;8.80;99.90;;;;;;5080850;28;20044;-58
2022/01/02 01:52:22;;;;;;;4.10;1.50;;;8.80;99.90;;;;;;5088660;28;19996;-58
2022/01/02 01:54:48;;;;;;;;;;;8.80;99.90;;;;;;5083841;28;20044;-57
2022/01/02 01:57:13;;;;;;;2.22;1.60;;;8.70;99.90;;;;;;5086557;28;19942;-58
2022/01/02 01:59:39;;;;;;;;;;;8.70;99.90;;;;;;5078180;28;20063;-58
2022/01/02 02:02:05;;;;;;;4.60;1.40;;;8.70;99.90;;;;;;5083832;28;19921;-59
2022/01/02 02:04:30;;;;;;;;;;;8.70;99.90;;;;;;5079906;28;20032;-60
2022/01/02 02:06:58;;;;;;;5.18;1.23;;;8.70;99.90;;;;;;5086326;28;19920;-59
2022/01/02 02:09:38;;;;;;;2.83;1.60;;;8.70;99.90;;;;;;5080823;28;20691;-58
2022/01/02 02:12:04;;;;;;;3.25;1.50;;;8.80;99.90;;;;;;5084493;28;20543;-58
2022/01/02 02:14:29;;;;;;;;;;;8.70;99.90;;;;;;5081435;28;20075;-57
2022/01/02 02:16:55;;;;;;;2.63;1.60;;;8.80;99.90;;;;;;5087589;28;19955;-59
2022/01/02 02:19:20;;;;;;;;;;;8.80;99.90;;;;;;5080148;28;20123;-58
2022/01/02 02:21:46;;;;;;;3.47;1.83;;;8.80;99.90;;;;;;5083532;28;19916;-59
2022/01/02 02:24:13;;;;;;;;;;;8.70;99.90;;;;;;5076079;28;20365;-60
2022/01/02 02:26:39;;;;;;;4.82;1.80;;;8.70;99.90;;;;;;5082727;28;19920;-59
2022/01/02 02:29:05;;;;;;;;;;;8.70;99.90;;;;;;5077081;28;20380;-59
2022/01/02 02:31:30;;;;;;;4.53;1.85;;;8.70;99.90;;;;;;5085974;28;20006;-59
2022/01/02 02:33:56;;;;;;;;;;;8.80;99.90;;;;;;5074287;28;20121;-59
2022/01/02 02:36:22;;;;;;;7.82;1.55;;;8.70;99.90;;;;;;5087257;28;19916;-60
2022/01/02 02:38:48;;;;;;;;;;;8.80;99.90;;;;;;5086826;28;20090;-62
2022/01/02 02:41:13;;;;;;;4.22;1.80;;;8.80;99.90;;;;;;5083446;28;19943;-60
2022/01/02 02:51:32;;;;;;;5.28;2.10;;;9.10;99.90;;;;;;5087675;28;20396;-59
2022/01/02 02:53:57;;;;;;;7.90;2.22;;;9.20;99.90;;;;;;5081525;28;20044;-59
2022/01/02 02:56:26;;;;;;;;;;;9.30;99.90;;;;;;5087315;28;20049;-60
2022/01/02 02:58:58;;;;;;;7.13;1.85;;;9.30;99.90;;;;;;5078364;28;19951;-59
2022/01/02 03:01:27;;;;;;;9.38;2.00;;;9.40;99.90;;;;;;5086412;28;20047;-59
2022/01/02 03:03:53;;;;;;;5.10;1.75;;;9.40;99.90;;;;;;5083407;28;20055;-59
2022/01/02 03:06:19;;;;;;;9.35;1.77;;;9.40;99.90;;;;;;5086568;28;20160;-59
2022/01/02 03:08:46;;;;;;;14.77;2.78;;;9.50;99.90;;;;;;5079711;28;20036;-58
2022/01/02 03:11:15;;;;;;;9.50;2.28;;;9.50;99.90;;;;;;5086267;28;20107;-57
2022/01/02 03:13:41;;;;;;;6.60;1.95;;;9.60;99.90;;;;;;5083164;28;20062;-54
2022/01/02 03:16:08;;;;;;;8.23;1.65;;;9.50;99.90;;;;;;5078311;28;20475;-59
2022/01/02 03:18:33;;;;;;;7.88;2.00;;;9.50;99.90;;;;;;5086550;28;20484;-60
2022/01/02 03:20:59;;;;;;;;;;;9.50;99.90;;;;;;5085535;28;20111;-58
2022/01/02 03:23:24;;;;;;;8.68;2.13;;;9.50;99.90;;;;;;5081361;28;19920;-60
2022/01/02 03:25:50;;;;;;;;;;;9.60;99.90;;;;;;5085322;28;20047;-58
2022/01/02 03:28:16;;;;;;;8.55;3.10;;;9.70;99.90;;;;;;5084851;28;19916;-60
2022/01/02 03:30:41;;;;;;;;;;;9.60;99.90;;;;;;5078599;28;20495;-60
2022/01/02 03:33:08;;;;;;;20.02;3.28;;;9.70;99.90;;;;;;5082056;28;19916;-60
2022/01/02 03:35:34;;;;;;;6.47;1.80;;;9.70;99.90;;;;;;5079934;28;20040;-60
2022/01/02 03:37:59;;;;;;;;;;;9.70;99.90;;;;;;5084299;28;20097;-57
2022/01/02 03:40:25;;;;;;;8.68;2.45;;;9.70;99.90;;;;;;5079141;28;20011;-59
2022/01/02 03:42:50;;;;;;;;;;;9.60;99.90;;;;;;5086600;28;20044;-58
2022/01/02 03:45:16;;;;;;;11.43;2.78;;;9.70;99.90;;;;;;5079749;28;19923;-59
2022/01/02 03:47:42;;;;;;;;;;;9.70;99.90;;;;;;5086676;28;20036;-58
2022/01/02 03:50:08;;;;;;;7.78;2.00;;;9.70;99.90;;;;;;5075807;28;19920;-60
2022/01/02 03:52:33;;;;;;;11.90;2.42;;;9.80;99.90;;;;;;5085955;28;20499;-60
2022/01/02 03:54:59;;;;;;;;;;;9.80;99.90;;;;;;5084354;28;20036;-60
2022/01/02 03:57:25;;;;;;;14.95;2.90;;;9.70;99.90;;;;;;5080723;28;19920;-60
2022/01/02 03:59:50;;;;;;;;;;;9.80;99.90;;;;;;5087729;28;20046;-58
2022/01/02 04:02:16;;;;;;;12.50;2.88;;;9.80;99.90;;;;;;5087507;28;19986;-60
2022/01/02 04:04:42;;;;;;;;;;;9.80;99.90;;;;;;5089603;28;20454;-59
2022/01/02 04:07:07;;;;;;;9.18;2.67;;;9.80;99.90;;;;;;5089632;28;19955;-59
2022/01/02 04:09:33;;;;;;;;;;;9.90;99.90;;;;;;5082979;28;20040;-60
2022/01/02 04:11:58;;;;;;;11.82;2.67;;;9.90;99.90;;;;;;5091115;28;19969;-59
2022/01/02 04:14:24;;;;;;;;;;;10.00;99.90;;;;;;5084273;28;20057;-60
2022/01/02 04:16:50;;;;;;;10.15;2.30;;;9.90;99.90;;;;;;5086881;28;19916;-59
2022/01/02 04:19:15;;;;;;;11.63;2.85;;;10.00;99.90;;;;;;5083526;28;20051;-60
2022/01/02 04:21:41;;;;;;;;;;;10.00;99.90;;;;;;5087430;28;20051;-60
2022/01/02 04:24:06;;;;;;;14.07;2.38;;;10.00;99.90;;;;;;5079862;28;20731;-59
2022/01/02 04:26:32;;;;;;;;;;;10.10;99.90;;;;;;5089252;28;20070;-56
2022/01/02 04:28:58;;;;;;;12.45;2.65;;;10.00;99.90;;;;;;5081334;28;19916;-57
2022/01/02 04:31:24;;;;;;;;;;;10.00;99.90;;;;;;5087057;28;20131;-59
2022/01/02 04:33:49;;;;;;;10.50;3.17;;;10.00;99.90;;;;;;5074575;28;19916;-58
2022/01/02 04:36:15;;;;;;;;;;;10.00;99.90;;;;;;5089346;28;20093;-57
2022/01/02 04:38:45;;;;;;;12.15;2.30;;;10.00;99.90;;;;;;5084540;28;20343;-59
2022/01/02 04:41:11;;;;;;;11.35;2.92;;;10.10;99.90;;;;;;5084459;28;20040;-59
2022/01/02 04:43:36;;;;;;;;;;;10.10;99.90;;;;;;5083652;28;20048;-57
2022/01/02 04:46:02;;;;;;;11.13;2.50;;;10.10;99.90;;;;;;5087943;28;20330;-58
2022/01/02 04:48:28;;;;;;;;;;;10.10;99.90;;;;;;5085879;28;20697;-59
2022/01/02 04:50:53;;;;;;;6.13;2.22;;;10.10;99.90;;;;;;5085510;28;19916;-59
2022/01/02 04:53:22;;;;;;;;;;;10.10;99.90;;;;;;5083431;28;20036;-58
2022/01/02 04:55:49;;;;;;;8.25;2.50;;;10.10;99.90;;;;;;5082836;28;19920;-60
2022/01/02 04:58:14;;;;;;;13.02;2.30;;;10.10;99.90;;;;;;5080553;28;20062;-59
2022/01/02 05:00:40;;;;;;;;;;;10.10;99.90;;;;;;5082682;28;20040;-59
2022/01/02 05:03:06;;;;;;;11.07;2.83;;;10.00;99.90;;;;;;5085221;28;19995;-56
2022/01/02 05:05:31;;;;;;;;;;;10.10;99.90;;;;;;5084084;28;20511;-58
2022/01/02 05:07:57;;;;;;;7.47;2.25;;;10.10;99.90;;;;;;5083547;28;19945;-58
2022/01/02 05:10:22;;;;;;;;;;;10.10;99.90;;;;;;5078843;28;20055;-59
2022/01/02 05:12:48;;;;;;;9.70;2.08;;;10.10;99.90;;;;;;5085096;28;20584;-59
2022/01/02 05:15:13;;;;;;;;;;;10.00;99.90;;;;;;5082395;28;20035;-60
2022/01/02 05:17:39;;;;;;;11.70;2.83;;;10.00;99.90;;;;;;5085271;28;19990;-60
2022/01/02 05:20:05;;;;;;;;;;;10.00;99.90;;;;;;5076993;28;20098;-59
2022/01/02 05:22:30;;;;;;;11.18;2.80;;;10.00;99.90;;;;;;5087022;28;19923;-56
2022/01/02 05:24:56;;;;;;;;;;;10.00;99.90;;;;;;5086358;28;20799;-59
2022/01/02 05:27:21;;;;;;;13.63;2.40;;;10.10;99.90;;;;;;5087419;28;20011;-58
2022/01/02 05:29:47;;;;;;;;;;;10.10;99.90;;;;;;5079218;28;20055;-59
2022/01/02 05:32:13;;;;;;;8.65;2.20;;;10.20;99.90;;;;;;5086986;28;20010;-61
2022/01/02 05:34:38;;;;;;;;;;;10.20;99.90;;;;;;5083189;28;20032;-60
2022/01/02 05:37:04;;;;;;;7.95;2.70;;;10.20;99.90;;;;;;5087542;28;19938;-60
2022/01/02 05:39:29;;;;;;;7.03;2.00;;;10.10;99.90;;;;;;5081132;28;20634;-58
2022/01/02 05:41:55;;;;;;;;;;;10.10;99.90;;;;;;5087949;28;20039;-56
2022/01/02 05:44:21;;;;;;;17.60;2.35;;;10.10;99.90;;;;;;5081681;28;19922;-57
2022/01/02 05:46:47;;;;;;;;;;;10.10;99.90;;;;;;5087794;28;20143;-59
2022/01/02 05:49:13;;;;;;;16.35;3.95;;;10.20;99.90;;;;;;5087425;28;20284;-58
2022/01/02 05:51:39;;;;;;;8.80;2.60;;;10.20;99.90;;;;;;5085323;28;20487;-58
2022/01/02 05:54:05;;;;;;;12.77;3.10;;;10.10;99.90;;;;;;5078685;28;20567;-59
2022/01/02 05:56:31;;;;;;;;;;;10.10;99.90;;;;;;5087501;28;20136;-59
2022/01/02 05:58:57;;;;;;;13.48;3.03;;;10.20;99.90;;;;;;5079244;28;20342;-58
2022/01/02 06:01:23;;;;;;;;;;;10.20;99.90;;;;;;5085912;28;20064;-57
2022/01/02 06:03:48;;;;;;;13.63;2.80;;;10.20;99.90;;;;;;5077715;28;19920;-60
2022/01/02 06:06:15;;;;;;;;;;;10.20;99.90;;;;;;5084234;28;20407;-59
2022/01/02 06:08:40;;;;;;;7.32;2.10;;;10.20;99.90;;;;;;5078974;28;19927;-58
2022/01/02 06:11:06;;;;;;;;;;;10.30;99.90;;;;;;5083876;28;20044;-59
2022/01/02 06:13:31;;;;;;;13.85;2.58;;;10.20;99.90;;;;;;5082387;28;19916;-57
2022/01/02 06:15:57;;;;;;;;;;;10.20;99.90;;;;;;5084620;28;20036;-59
2022/01/02 06:18:22;;;;;;;9.68;2.20;;;10.20;99.90;;;;;;5084462;28;19916;-58
2022/01/02 06:20:48;;;;;;;9.88;2.72;;;10.20;99.90;;;;;;5079427;28;20067;-58
2022/01/02 06:23:16;;;;;;;;;;;10.10;99.90;;;;;;5082781;28;20075;-59
2022/01/02 06:25:45;;;;;;;7.05;1.75;;;10.20;99.90;;;;;;5080353;28;19993;-59
2022/01/02 06:28:11;;;;;;;8.77;1.80;;;10.10;99.90;;;;;;5082683;28;20111;-59
2022/01/02 06:30:36;;;;;;;14.20;3.75;;;10.10;99.90;;;;;;5071897;28;20040;-58
2022/01/02 06:33:03;;;;;;;;;;;10.10;99.90;;;;;;5083376;28;20601;-58
2022/01/02 06:35:32;;;;;;;13.38;2.53;;;10.10;99.90;;;;;;5082733;28;19917;-59
2022/01/02 06:37:59;;;;;;;13.15;2.22;;;10.10;99.90;;;;;;5081660;28;20495;-59
2022/01/02 06:40:26;;;;;;;6.70;2.10;;;10.10;99.90;;;;;;5077102;28;20046;-60
2022/01/02 06:42:52;;;;;;;17.75;2.65;;;10.10;99.90;;;;;;5086377;28;20516;-54
2022/01/02 06:45:18;;;;;;;10.43;2.67;;;10.10;99.90;;;;;;5080534;28;20044;-57
2022/01/02 06:47:44;;;;;;;7.38;1.83;;;10.00;99.90;;;;;;5085740;28;20040;-57
2022/01/02 06:50:12;;;;;;;;;;;10.00;99.90;;;;;;5077976;28;20438;-59
2022/01/02 06:52:38;;;;;;;16.80;2.65;;;10.10;99.90;;;;;;5082212;28;19920;-59
2022/01/02 06:55:04;;;;;;;14.90;2.50;;;10.10;99.90;;;;;;5080305;28;20043;-57
2022/01/02 06:57:29;;;;;;;8.73;1.77;;;10.10;99.90;;;;;;5086337;28;20404;-60
2022/01/02 06:59:55;;;;;;;;;;;10.20;99.90;;;;;;5075487;28;20044;-59
2022/01/02 07:02:21;;;;;;;9.30;1.92;;;10.10;99.90;;;;;;5082768;28;19920;-59
2022/01/02 07:04:46;;;;;;;;;;;10.10;99.90;;;;;;5079199;28;20038;-58
2022/01/02 07:07:11;;;;;;;12.43;2.63;;;10.10;99.90;;;;;;5083451;28;19974;-59
2022/01/02 07:09:37;;;;;;;;;;;10.10;99.90;;;;;;5077531;28;20040;-57
2022/01/02 07:12:03;;;;;;;15.10;3.03;;;10.10;99.90;;;;;;5086156;28;19916;-58
2022/01/02 07:14:29;;;;;;;;;;;10.20;99.90;;;;;;5081806;28;20662;-58
2022/01/02 07:16:56;;;;;;;6.78;1.60;;;10.20;99.90;;;;;;5086068;28;19916;-59
2022/01/02 07:19:22;;;;;;;12.32;2.13;;;10.20;99.90;;;;;;5079190;28;20119;-60
2022/01/02 07:21:48;;;;;;;;;;;10.20;99.90;;;;;;5082539;28;20040;-62
2022/01/02 07:24:14;;;;;;;7.63;3.03;;;10.20;99.90;;;;;;5073074;28;19916;-59
2022/01/02 07:26:39;;;;;;;;;;;10.10;99.90;;;;;;5085878;28;20047;-61
2022/01/02 07:29:05;;;;;;;10.30;2.47;;;10.10;99.90;;;;;;5082388;28;19921;-60
2022/01/02 07:31:30;;;;;;;;;;;10.10;99.90;;;;;;5090080;28;20044;-59
2022/01/02 07:33:56;;;;;;;14.73;3.60;;;10.10;99.90;;;;;;5083291;28;19924;-60
2022/01/02 07:36:21;;;;;;;;;;;10.10;99.90;;;;;;5091010;28;20097;-61
2022/01/02 07:38:47;;;;;;;11.70;2.55;;;10.10;99.90;;;;;;5083258;28;20543;-60
2022/01/02 07:41:14;;;;;;;;;;;10.10;99.90;;;;;;5084943;28;20144;-59
2022/01/02 07:43:39;;;;;;;10.07;2.07;;;10.10;99.90;;;;;;5083660;28;19917;-60
2022/01/02 07:46:05;;;;;;;;;;;10.10;99.90;;;;;;5089108;28;20415;-56
2022/01/02 07:48:30;;;;;;;8.95;2.33;;;10.10;99.90;;;;;;5080005;28;19920;-58
2022/01/02 07:50:56;;;;;;;;;;;10.10;99.90;;;;;;5088636;28;20150;-63
2022/01/02 07:53:22;;;;;;;14.50;2.45;;;10.10;99.90;;;;;;5087112;28;20650;-62
2022/01/02 07:55:47;;;;;;;11.85;2.97;;;10.00;99.90;;;;;;5088017;28;20090;-61
2022/01/02 07:58:13;;;;;;;;;;;10.00;99.90;;;;;;5087516;28;20051;-64
2022/01/02 08:00:39;;;;;;;12.75;2.72;;;10.00;99.90;;;;;;5076058;28;19951;-60
2022/01/02 08:03:04;;;;;;;;;;;10.00;99.90;;;;;;5088931;28;20044;-61
2022/01/02 08:05:31;;;;;;;12.82;3.58;;;9.90;99.90;;;;;;5086127;28;20050;-61
2022/01/02 08:07:58;;;;;;;10.40;4.03;;;9.90;99.90;;;;;;5086408;28;20048;-61
2022/01/02 08:10:25;;;;;;;12.02;3.10;;;9.90;99.90;;;;;;5082335;28;20040;-61
2022/01/02 08:12:52;;;;;;;11.20;3.28;;;9.90;99.90;;;;;;5073259;28;20044;-59
2022/01/02 08:15:18;;;;;;;9.25;3.03;;;9.80;99.90;;;;;;5082746;28;20028;-63
2022/01/02 08:17:43;;;;;;;;;;;9.80;99.90;;;;;;5086681;28;20044;-61
2022/01/02 08:20:09;;;;;;;10.07;3.03;;;9.80;99.90;;;;;;5081879;28;19977;-60
2022/01/02 08:22:34;;;;;;;;;;;9.80;99.90;;;;;;5089130;28;20051;-62
2022/01/02 08:25:01;;;;;;;8.55;3.00;;;9.80;99.90;;;;;;5083680;28;19916;-61
2022/01/02 08:27:27;;;;;;;13.30;3.05;;;9.70;99.90;;;;;;5089931;28;20055;-62
2022/01/02 08:29:53;;;;;;;;;;;9.70;99.90;;;;;;5082181;28;20036;-61
2022/01/02 08:32:19;;;;;;;14.23;3.40;;;9.70;99.90;;;;;;5088527;28;19927;-63
2022/01/02 08:34:44;;;;;;;;;;;9.70;99.90;;;;;;5079159;28;20043;-62
2022/01/02 08:37:11;;;;;;;12.93;3.42;;;9.70;99.90;;;;;;5085996;28;19924;-62
2022/01/02 08:39:38;;;;;;;11.40;3.50;;;9.70;99.90;;;;;;5084459;28;20039;-63
2022/01/02 08:42:04;;;;;;;11.43;3.45;;;9.70;99.90;;;;;;5085970;28;20042;-65
2022/01/02 08:44:29;;;;;;;11.02;3.53;;;9.70;99.90;;;;;;5082530;28;20042;-63
2022/01/02 08:46:55;;;;;;;;;;;9.70;99.90;;;;;;5090047;28;20439;-62
2022/01/02 08:49:21;;;;;;;15.68;3.28;;;9.80;99.90;;;;;;5083603;28;19916;-63
2022/01/02 08:51:47;;;;;;;11.77;3.40;;;9.80;99.90;;;;;;5089616;28;20047;-62
2022/01/02 08:54:13;;;;;;;12.65;3.42;;;9.70;99.90;;;;;;5083689;28;20051;-62
2022/01/02 08:56:39;;;;;;;;;;;9.80;99.90;;;;;;5087542;28;20040;-64
2022/01/02 08:59:04;;;;;;;17.67;3.47;;;9.80;99.90;;;;;;5081488;28;19965;-62
2022/01/02 09:01:30;;;;;;;;;;;9.80;99.90;;;;;;5089314;28;20040;-62
2022/01/02 09:03:55;;;;;;;12.27;3.63;;;9.90;99.90;;;;;;5081779;28;19933;-63
2022/01/02 09:06:21;;;;;;;11.43;2.92;;;9.90;99.90;;;;;;5071133;28;20412;-62
2022/01/02 09:08:47;;;;;;;;;;;10.00;99.90;;;;;;5077799;28;20036;-62
2022/01/02 09:11:13;;;;;;;14.15;3.70;;;10.00;99.90;;;;;;5083902;28;19916;-62
2022/01/02 09:13:38;;;;;;;21.27;4.75;;;10.00;99.90;;;;;;5076668;28;20044;-62
2022/01/02 09:16:04;;;;;;;;;;;10.10;99.90;;;;;;5084609;28;20082;-63
2022/01/02 09:18:29;;;;;;;18.27;3.97;;;10.20;99.90;;;;;;5083527;28;19916;-63
2022/01/02 09:20:55;;;;;;;;;;;10.30;99.90;;;;;;5087244;28;20044;-63
2022/01/02 09:23:21;;;;;;;9.57;2.30;;;10.30;99.90;;;;;;5088366;28;19928;-63
2022/01/02 09:25:46;;;;;;;10.07;2.88;;;10.40;99.90;;;;;;5086015;28;20111;-62
2022/01/02 09:28:12;;;;;;;;;;;10.50;99.90;;;;;;5085216;28;20698;-63
2022/01/02 09:30:37;;;;;;;13.20;2.45;;;10.70;99.90;;;;;;5081684;28;19916;-63
2022/01/02 09:33:08;;;;;;;;;;;10.70;99.90;;;;;;5087979;28;20115;-63
2022/01/02 09:35:34;;;;;;;10.38;2.22;;;10.80;99.90;;;;;;5087267;28;19939;-64
2022/01/02 09:37:59;;;;;;;8.25;2.17;;;10.90;99.90;;;;;;5084627;28;20068;-60
2022/01/02 09:40:26;;;;;;;;;;;10.90;99.90;;;;;;5079568;28;20067;-63
2022/01/02 09:42:52;;;;;;;8.35;1.88;;;10.90;99.90;;;;;;5088325;28;19932;-64
2022/01/02 09:45:19;;;;;;;;;;;10.90;99.90;;;;;;5085492;28;20032;-62
2022/01/02 09:47:45;;;;;;;11.57;2.40;;;11.00;99.90;;;;;;5088435;28;20689;-62
2022/01/02 09:50:10;;;;;;;;;;;11.10;99.90;;;;;;5083640;28;20036;-62
2022/01/02 09:52:37;;;;;;;5.95;1.60;;;11.00;99.90;;;;;;5087902;28;19916;-62
2022/01/02 09:55:03;;;;;;;6.82;1.55;;;11.00;99.90;;;;;;5084692;28;20343;-62
2022/01/02 09:57:29;;;;;;;7.15;2.40;;;11.10;99.90;;;;;;5081518;28;20032;-63
2022/01/02 09:59:56;;;;;;;;;;;11.10;99.90;;;;;;5084964;28;20035;-62
2022/01/02 10:02:22;;;;;;;7.40;2.03;;;11.20;99.90;;;;;;5085276;28;19915;-62
2022/01/02 10:04:47;;;;;;;;;;;11.20;99.90;;;;;;5081436;28;20042;-63
2022/01/02 10:07:31;;;;;;;3.83;1.25;;;11.20;99.90;;;;;;5079479;28;19924;-62
2022/01/02 10:09:58;;;;;;;5.88;1.08;;;11.20;99.90;;;;;;5080019;28;20444;-64
2022/01/02 10:12:33;;;;;;;4.72;1.33;;;11.20;99.90;;;;;;5089149;28;20044;-63
2022/01/02 10:15:19;;;;;;;4.30;1.65;;;11.20;99.90;;;;;;5080619;28;20036;-63
2022/01/02 10:18:08;;;;;;;4.25;1.42;;;11.30;99.90;;;;;;5069637;28;20047;-62
2022/01/02 10:20:40;;;;;;;3.33;0.98;;;11.20;99.90;;;;;;5081650;28;20043;-63
2022/01/02 10:23:18;;;;;;;2.92;0.98;;;11.20;99.90;;;;;;5082583;28;20041;-62
2022/01/02 10:25:52;;;;;;;5.00;1.23;;;11.20;99.90;;;;;;5078941;28;20068;-63
2022/01/02 10:28:27;;;;;;;4.03;1.40;;;11.20;99.90;;;;;;5073173;28;20041;-63
2022/01/02 10:30:55;;;;;;;2.97;1.38;;;11.30;99.90;;;;;;5079886;28;20032;-63
2022/01/02 10:33:21;;;;;;;3.35;1.33;;;11.20;99.90;;;;;;5080338;28;20066;-62
2022/01/02 10:35:47;;;;;;;5.28;2.13;;;11.30;99.90;;;;;;5082036;28;20130;-63
2022/01/02 10:38:16;;;;;;;;;;;11.20;99.90;;;;;;5077989;28;20503;-63
2022/01/02 10:40:42;;;;;;;5.13;1.25;;;11.20;99.90;;;;;;5082912;28;20593;-62
2022/01/02 10:43:29;;;;;;;8.02;1.40;;;11.20;99.90;;;;;;5081012;28;20044;-64
2022/01/02 10:45:58;;;;;;;4.03;1.20;;;11.10;99.90;;;;;;5073735;28;20124;-62
2022/01/02 10:48:32;;;;;;;6.15;1.60;;;11.10;99.90;;;;;;5075844;28;20067;-62
2022/01/02 10:51:15;;;;;;;3.85;1.10;;;11.10;99.90;;;;;;5083001;28;20031;-62
2022/01/02 10:54:01;;;;;;;2.70;1.10;;;11.00;99.90;;;;;;5082178;28;20060;-62
2022/01/02 10:56:31;;;;;;;4.33;1.40;;;10.90;99.90;;;;;;5085555;28;20121;-62
2022/01/02 10:59:01;;;;;;;5.20;1.48;;;10.90;99.90;;;;;;5079696;28;20659;-62
2022/01/02 11:01:27;;;;;;;4.78;1.45;;;11.00;99.90;;;;;;5081822;28;20043;-62
2022/01/02 11:03:56;;;;;;;4.43;1.63;;;11.00;99.90;;;;;;5082756;28;20764;-64
2022/01/02 11:06:30;;;;;;;8.13;1.38;;;11.00;99.90;;;;;;5077587;28;20056;-63
2022/01/02 11:08:59;;;;;;;4.53;1.67;;;11.00;99.90;;;;;;5074290;28;20043;-62
2022/01/02 11:11:25;;;;;;;6.68;1.77;;;11.00;99.90;;;;;;5082206;28;20127;-63
2022/01/02 11:13:51;;;;;;;4.80;1.90;;;11.00;99.90;;;;;;5081537;28;20506;-63
2022/01/02 11:16:18;;;;;;;4.15;1.73;;;10.90;99.90;;;;;;5081503;28;20151;-64
2022/01/02 11:18:46;;;;;;;3.92;1.77;;;10.90;99.90;;;;;;5077148;28;20035;-64
2022/01/02 11:21:13;;;;;;;6.82;1.83;;;10.90;99.90;;;;;;5067541;28;20039;-63
2022/01/02 11:23:44;;;;;;;4.55;2.15;;;11.00;99.90;;;;;;5073501;28;20392;-63
2022/01/02 11:27:01;;;;;;;3.30;2.25;;;11.10;99.90;;;;;;5075901;28;20492;-63
2022/01/02 11:29:28;;;;;;;8.80;2.05;;;11.20;99.90;;;;;;5046460;28;20488;-63
2022/01/02 11:31:55;;;;;;;6.80;2.53;;;11.40;99.90;;;;;;5072666;28;20136;-63
2022/01/02 11:34:27;;;;;;;5.03;2.35;;;11.40;99.90;;;;;;5075447;28;20070;-62
2022/01/02 11:37:13;;;;;;;5.13;2.00;;;11.40;99.90;;;;;;5074060;28;20106;-63
2022/01/02 11:40:12;;;;;;;9.02;2.63;;;11.40;99.90;;;;;;5074009;28;20036;-63
2022/01/02 11:42:38;;;;;;;7.05;2.78;;;11.40;99.90;;;;;;5039032;28;20056;-63
2022/01/02 11:45:09;;;;;;;4.82;2.30;;;11.30;99.90;;;;;;5077590;28;20033;-63
2022/01/02 11:47:47;;;;;;;6.00;2.80;;;11.20;99.90;;;;;;5079609;28;20052;-63
2022/01/02 11:50:31;;;;;;;11.13;2.72;;;11.00;99.90;;;;;;5079782;28;20079;-63
2022/01/02 11:53:12;;;;;;;13.95;5.25;;;11.00;99.90;;;;;;5085830;28;20040;-64
2022/01/02 11:55:40;;;;;;;4.45;2.58;;;11.10;99.90;;;;;;5079224;28;20051;-63
2022/01/02 11:58:07;;;;;;;8.88;3.25;;;11.20;99.90;;;;;;5085727;28;20047;-63
2022/01/02 12:00:37;;;;;;;8.95;2.80;;;11.20;99.90;;;;;;5083169;28;20170;-62
2022/01/02 12:03:03;;;;;;;4.63;2.50;;;11.20;99.90;;;;;;5086177;28;20107;-63
2022/01/02 12:05:29;;;;;;;;;;;11.10;99.90;;;;;;5085126;28;20185;-63
2022/01/02 12:07:56;;;;;;;8.38;2.47;;;11.20;99.90;;;;;;5087079;28;19924;-62
2022/01/02 12:10:28;;;;;;;6.25;2.70;;;11.20;99.90;;;;;;5076833;28;20036;-63
2022/01/02 12:13:05;;;;;;;7.93;2.75;;;11.20;99.90;;;;;;5084916;28;20400;-63
2022/01/02 12:15:33;;;;;;;6.07;2.80;;;11.10;99.90;;;;;;5087318;28;20036;-62
2022/01/02 12:18:11;;;;;;;7.50;2.38;;;11.00;99.90;;;;;;5087850;28;20550;-63
2022/01/02 12:20:52;;;;;;;11.50;3.17;;;11.00;99.90;;;;;;5083797;28;20415;-65
2022/01/02 12:23:36;;;;;;;6.72;2.72;;;10.90;99.90;;;;;;5087231;28;20511;-65
2022/01/02 12:26:06;;;;;;;9.38;2.88;;;11.00;99.90;;;;;;5082023;28;20104;-67
2022/01/02 12:28:37;;;;;;;8.48;3.30;;;11.00;99.90;;;;;;5075135;28;20061;-64
2022/01/02 12:31:04;;;;;;;7.03;3.15;;;10.90;99.90;;;;;;5083431;28;20050;-61
2022/01/02 12:33:30;;;;;;;9.40;3.58;;;10.80;99.90;;;;;;5084868;28;20515;-60
2022/01/02 12:36:07;;;;;;;3.70;2.15;;;10.90;99.90;;;;;;5085539;28;20051;-61
2022/01/02 12:38:51;;;;;;;6.03;2.92;;;10.90;99.90;;;;;;5080153;28;20063;-61
2022/01/02 12:41:44;;;;;;;6.18;2.72;;;10.90;99.90;;;;;;5088771;28;20050;-62
2022/01/02 12:44:15;;;;;;;6.85;3.13;;;10.80;99.90;;;;;;5080486;28;20052;-62
2022/01/02 12:46:48;;;;;;;10.77;3.00;;;10.90;99.90;;;;;;5089383;28;20040;-62
2022/01/02 12:49:28;;;;;;;6.95;3.30;;;10.80;99.90;;;;;;5084170;28;20127;-63
2022/01/02 12:51:56;;;;;;;7.53;3.40;;;10.70;99.90;;;;;;5088191;28;20395;-62
2022/01/02 12:54:25;;;;;;;7.28;3.17;;;10.70;99.90;;;;;;5078530;28;20051;-61
2022/01/02 12:56:55;;;;;;;10.05;3.13;;;10.60;99.90;;;;;;5087982;28;20040;-63
2022/01/02 12:59:35;;;;;;;9.10;2.75;;;10.60;99.90;;;;;;5085247;28;20036;-62
2022/01/02 13:02:09;;;;;;;8.68;3.20;;;10.50;99.90;;;;;;5085734;28;20085;-63
2022/01/02 13:04:47;;;;;;;6.82;3.13;;;10.50;99.90;;;;;;5082796;28;20043;-64
2022/01/02 13:07:28;;;;;;;5.85;3.13;;;10.50;99.90;;;;;;5086855;28;20040;-63
2022/01/02 13:09:56;;;;;;;8.45;3.63;;;10.50;99.90;;;;;;5085621;28;20040;-63
2022/01/02 13:12:21;;;;;;;5.13;2.70;;;10.50;99.90;;;;;;5077137;28;20036;-62
2022/01/02 13:14:50;;;;;;;;;;;10.50;99.90;;;;;;5085379;28;20537;-63
2022/01/02 13:17:28;;;;;;;6.57;3.17;;;10.40;99.90;;;;;;5081928;28;19923;-62
2022/01/02 13:20:08;;;;;;;9.32;2.90;;;10.40;99.90;;;;;;5076348;28;20032;-63
2022/01/02 13:22:43;;;;;;;8.80;3.22;;;10.40;99.90;;;;;;5081341;28;20036;-63
2022/01/02 13:25:11;;;;;;;5.13;2.72;;;10.30;99.90;;;;;;5081991;28;20615;-62